Time;durP1;ratioP1;P1;durP2;ratioP2;P2;SDS_P1;SDS_P2;PMS_P1;PMS_P2;Temp;Humidity;BMP_temperature;BMP_pressure;BME280_temperature;BME280_humidity;BME280_pressure;Samples;Min_cycle;Max_cycle;Signal;HPM_P1;HPM_P2
2024/01/31 00:00:12;;;;;;;0.10;0.10;;;;;;;2.54;73.18;101380.13;4186790;28;21131;-63
2024/01/31 00:02:39;;;;;;;0.10;0.10;;;;;;;2.58;73.29;101371.03;4189895;28;24302;-64
2024/01/31 00:05:06;;;;;;;0.20;0.20;;;;;;;2.47;73.70;101376.03;4187472;28;21350;-65
2024/01/31 00:07:33;;;;;;;0.20;0.20;;;;;;;2.55;73.27;101363.16;4185517;28;20232;-63
2024/01/31 00:10:00;;;;;;;0.10;0.10;;;;;;;2.53;73.40;101370.38;4194467;28;20244;-66
2024/01/31 00:12:27;;;;;;;7.53;1.80;;;;;;;2.55;73.51;101376.53;4188606;28;22828;-64
2024/01/31 00:14:54;;;;;;;0.43;0.40;;;;;;;2.38;73.83;101363.94;4194013;28;20233;-65
2024/01/31 00:17:21;;;;;;;4.90;0.83;;;;;;;2.43;74.11;101374.41;4184489;28;21745;-64
2024/01/31 00:19:48;;;;;;;1.13;0.43;;;;;;;2.36;74.40;101374.69;4190262;28;20307;-62
2024/01/31 00:22:14;;;;;;;0.30;0.30;;;;;;;2.48;73.73;101373.28;4192768;28;20272;-63
2024/01/31 00:24:41;;;;;;;1.67;1.57;;;;;;;2.49;73.74;101366.13;4199059;28;21994;-63
2024/01/31 00:27:08;;;;;;;2.00;1.90;;;;;;;2.40;73.94;101372.75;4206543;28;20313;-64
2024/01/31 00:29:34;;;;;;;1.10;0.60;;;;;;;2.40;74.20;101362.06;4192062;28;20239;-65
2024/01/31 00:32:05;;;;;;;0.10;0.10;;;;;;;2.42;74.40;101372.72;4183978;28;20239;-63
2024/01/31 00:34:32;;;;;;;2.50;2.30;;;;;;;2.39;74.54;101371.03;4194653;28;20256;-65
2024/01/31 00:36:59;;;;;;;0.10;0.10;;;;;;;2.31;75.16;101370.50;4205696;28;20241;-62
2024/01/31 00:39:31;;;;;;;3.83;2.63;;;;;;;2.30;75.17;101375.00;4186866;28;21503;-63
2024/01/31 00:41:58;;;;;;;0.37;0.37;;;;;;;2.31;75.25;101365.16;4190229;28;20848;-62
2024/01/31 00:44:26;;;;;;;0.10;0.10;;;;;;;2.32;74.86;101364.22;4186142;28;20245;-65
2024/01/31 00:46:53;;;;;;;0.17;0.17;;;;;;;2.40;75.13;101361.22;4187666;28;20287;-63
2024/01/31 00:49:20;;;;;;;3.07;0.67;;;;;;;2.30;75.16;101353.63;4197469;28;21067;-63
2024/01/31 00:51:51;;;;;;;0.07;0.07;;;;;;;2.21;75.72;101349.59;4187999;28;22960;-62
2024/01/31 00:54:18;;;;;;;0.10;0.10;;;;;;;2.13;76.09;101343.72;4189374;28;20246;-64
2024/01/31 00:56:45;;;;;;;0.30;0.30;;;;;;;2.31;75.37;101346.47;4188557;28;20344;-66
2024/01/31 00:59:11;;;;;;;0.10;0.10;;;;;;;2.35;75.27;101354.25;4194881;28;21096;-62
2024/01/31 01:01:38;;;;;;;0.10;0.10;;;;;;;2.28;75.42;101346.63;4184799;28;20489;-64
2024/01/31 01:04:07;;;;;;;1.00;1.00;;;;;;;2.31;75.90;101343.78;4194170;28;20236;-64
2024/01/31 01:06:34;;;;;;;0.23;0.23;;;;;;;2.24;75.65;101345.91;4185222;28;20414;-63
2024/01/31 01:09:00;;;;;;;0.10;0.10;;;;;;;2.29;75.79;101345.69;4191841;28;20655;-64
2024/01/31 01:11:29;;;;;;;0.10;0.10;;;;;;;2.21;76.01;101333.56;4188442;28;20336;-61
2024/01/31 01:13:56;;;;;;;0.20;0.20;;;;;;;2.16;76.51;101337.38;4191877;28;20240;-64
2024/01/31 01:16:22;;;;;;;4.43;1.07;;;;;;;2.21;76.26;101336.22;4192055;28;20234;-63
2024/01/31 01:18:49;;;;;;;0.10;0.10;;;;;;;2.21;76.47;101333.56;4188674;28;20237;-63
2024/01/31 01:21:16;;;;;;;0.10;0.10;;;;;;;2.15;76.66;101328.47;4193892;28;21036;-63
2024/01/31 01:23:42;;;;;;;1.07;0.57;;;;;;;2.16;76.41;101329.34;4189013;28;20422;-61
2024/01/31 01:26:09;;;;;;;0.10;0.10;;;;;;;2.21;76.42;101322.88;4195746;28;20232;-64
2024/01/31 01:28:36;;;;;;;0.10;0.10;;;;;;;2.17;76.85;101323.06;4192081;28;20343;-65
2024/01/31 01:31:03;;;;;;;0.20;0.20;;;;;;;2.13;76.74;101322.34;4192546;28;20804;-64
2024/01/31 01:33:30;;;;;;;0.20;0.20;;;;;;;2.14;76.91;101324.09;4192909;28;20915;-61
2024/01/31 01:35:57;;;;;;;0.10;0.10;;;;;;;2.16;76.93;101318.66;4186362;28;21545;-61
2024/01/31 01:38:23;;;;;;;0.60;0.60;;;;;;;2.26;76.88;101322.66;4187376;28;20236;-66
2024/01/31 01:40:50;;;;;;;0.40;0.27;;;;;;;2.17;76.78;101317.72;4189300;28;20610;-61
2024/01/31 01:43:17;;;;;;;1.50;1.27;;;;;;;2.17;77.03;101320.41;4196564;28;20248;-61
2024/01/31 01:45:44;;;;;;;0.10;0.10;;;;;;;2.11;77.51;101316.22;4188614;28;20783;-63
2024/01/31 01:48:15;;;;;;;0.10;0.10;;;;;;;2.00;77.87;101318.53;4196766;28;20411;-60
2024/01/31 01:50:42;;;;;;;0.10;0.10;;;;;;;1.93;78.28;101306.38;4186322;28;20431;-63
2024/01/31 01:53:09;;;;;;;0.10;0.10;;;;;;;2.02;78.26;101314.84;4191284;28;21200;-63
2024/01/31 01:55:38;;;;;;;0.10;0.10;;;;;;;2.08;77.72;101316.34;4184730;28;20718;-62
2024/01/31 01:58:05;;;;;;;0.40;0.40;;;;;;;2.11;77.86;101316.22;4193640;28;20471;-64
2024/01/31 02:00:33;;;;;;;0.67;0.67;;;;;;;2.13;77.92;101308.13;4189098;28;20466;-65
2024/01/31 02:03:01;;;;;;;2.30;1.50;;;;;;;2.15;77.88;101315.13;4196718;28;20324;-62
2024/01/31 02:05:29;;;;;;;0.97;0.97;;;;;;;2.04;78.38;101312.94;4192798;28;20982;-63
2024/01/31 02:07:55;;;;;;;0.10;0.10;;;;;;;1.98;78.88;101307.88;4193929;28;20229;-62
2024/01/31 02:10:22;;;;;;;0.10;0.10;;;;;;;2.07;78.47;101309.28;4188438;28;20686;-63
2024/01/31 02:12:48;;;;;;;0.83;0.57;;;;;;;2.00;78.77;101307.84;4193022;28;20229;-64
2024/01/31 02:15:15;;;;;;;0.37;0.37;;;;;;;2.02;78.35;101304.16;4189385;28;21905;-63
2024/01/31 02:17:41;;;;;;;0.30;0.30;;;;;;;2.09;78.64;101310.06;4189008;28;21928;-63
2024/01/31 02:20:15;;;;;;;0.10;0.10;;;;;;;2.00;78.75;101313.19;4191135;28;20285;-63
2024/01/31 02:22:48;;;;;;;4.83;4.47;;;;;;;2.04;78.42;101309.41;4189146;28;20244;-64
2024/01/31 02:25:15;;;;;;;0.13;0.13;;;;;;;1.99;78.92;101308.78;4190731;28;20333;-61
2024/01/31 02:27:41;;;;;;;0.10;0.10;;;;;;;1.95;79.14;101309.84;4191725;28;20229;-63
2024/01/31 02:30:08;;;;;;;0.10;0.10;;;;;;;1.90;79.48;101310.94;4186343;28;20246;-65
2024/01/31 02:32:36;;;;;;;1.10;0.87;;;;;;;1.98;78.93;101312.38;4190585;28;23490;-63
2024/01/31 02:35:03;;;;;;;0.67;0.67;;;;;;;2.00;79.19;101316.72;4191815;28;20328;-62
2024/01/31 02:37:30;;;;;;;0.10;0.10;;;;;;;1.99;79.03;101311.44;4188609;28;20264;-61
2024/01/31 02:39:56;;;;;;;0.10;0.10;;;;;;;2.01;79.26;101317.56;4184420;28;21683;-63
2024/01/31 02:42:23;;;;;;;0.10;0.10;;;;;;;1.94;79.68;101317.00;4183862;28;20245;-63
2024/01/31 02:44:50;;;;;;;0.10;0.10;;;;;;;1.92;79.54;101313.50;4186204;28;21976;-63
2024/01/31 02:47:16;;;;;;;5.10;1.17;;;;;;;1.84;80.07;101307.66;4193811;28;20238;-63
2024/01/31 02:49:43;;;;;;;0.20;0.20;;;;;;;1.93;79.65;101309.06;4191253;28;22610;-64
2024/01/31 02:52:09;;;;;;;1.00;0.70;;;;;;;1.78;80.48;101303.44;4187149;28;20279;-63
2024/01/31 02:54:36;;;;;;;0.73;0.73;;;;;;;1.78;80.90;101307.94;4185147;28;20237;-63
2024/01/31 02:57:03;;;;;;;2.23;1.70;;;;;;;1.78;81.21;101302.59;4198265;28;21843;-64
2024/01/31 02:59:30;;;;;;;0.93;0.93;;;;;;;1.79;81.28;101299.00;4184658;28;20246;-64
2024/01/31 03:01:57;;;;;;;0.10;0.10;;;;;;;1.78;81.50;101302.59;4186674;28;20597;-62
2024/01/31 03:04:23;;;;;;;0.20;0.20;;;;;;;1.77;81.58;101296.41;4197617;28;20908;-64
2024/01/31 03:06:50;;;;;;;0.00;0.00;;;;;;;1.80;81.74;101298.06;4206415;28;20416;-65
2024/01/31 03:09:17;;;;;;;0.10;0.10;;;;;;;1.83;81.69;101297.91;4187535;28;20245;-62
2024/01/31 03:11:43;;;;;;;0.10;0.10;;;;;;;1.86;81.72;101295.13;4185740;28;20241;-62
2024/01/31 03:14:11;;;;;;;1.13;1.13;;;;;;;1.82;82.16;101296.16;4187264;28;20877;-65
2024/01/31 03:16:39;;;;;;;0.10;0.10;;;;;;;1.87;81.82;101297.69;4182967;28;21582;-64
2024/01/31 03:19:07;;;;;;;0.13;0.13;;;;;;;2.00;81.72;101294.50;4188059;28;21767;-63
2024/01/31 03:21:34;;;;;;;0.17;0.17;;;;;;;1.99;81.79;101290.09;4183520;28;20656;-65
2024/01/31 03:24:00;;;;;;;1.17;0.50;;;;;;;1.82;82.79;101286.38;4188459;28;20238;-60
2024/01/31 03:26:27;;;;;;;0.10;0.10;;;;;;;1.86;83.00;101297.78;4184582;28;20244;-65
2024/01/31 03:28:54;;;;;;;0.20;0.20;;;;;;;1.88;83.35;101285.22;4186784;28;20248;-63
2024/01/31 03:31:21;;;;;;;2.57;2.43;;;;;;;1.90;83.40;101284.22;4193891;28;20234;-62
2024/01/31 03:33:48;;;;;;;4.70;1.90;;;;;;;1.96;83.23;101291.09;4190971;28;20884;-64
2024/01/31 03:36:15;;;;;;;1.30;0.47;;;;;;;1.78;84.55;101292.78;4189173;28;20286;-62
2024/01/31 03:38:41;;;;;;;0.27;0.27;;;;;;;1.94;83.95;101284.94;4177220;28;20238;-62
2024/01/31 03:41:08;;;;;;;3.40;1.83;;;;;;;1.87;84.53;101291.50;4189831;28;22188;-63
2024/01/31 03:43:35;;;;;;;8.50;1.43;;;;;;;1.83;84.84;101297.91;4189857;28;20313;-64
2024/01/31 03:46:05;;;;;;;2.77;0.80;;;;;;;1.69;85.74;101296.75;4189192;28;20241;-65
2024/01/31 03:48:32;;;;;;;1.60;1.13;;;;;;;1.67;86.07;101295.94;4188118;28;20230;-64
2024/01/31 03:50:59;;;;;;;1.30;0.67;;;;;;;1.68;86.23;101292.31;4183041;28;20305;-63
2024/01/31 03:53:26;;;;;;;0.83;0.63;;;;;;;1.86;86.14;101292.44;4178609;28;20309;-63
2024/01/31 03:55:52;;;;;;;0.70;0.40;;;;;;;1.99;85.14;101287.41;4185321;28;20237;-62
2024/01/31 03:58:19;;;;;;;2.97;0.67;;;;;;;1.91;85.58;101290.41;4184417;28;20307;-64
2024/01/31 04:00:46;;;;;;;7.50;0.93;;;;;;;1.93;85.37;101283.22;4187160;28;20246;-64
2024/01/31 04:03:14;;;;;;;1.50;0.83;;;;;;;1.95;85.90;101284.00;4192166;28;21472;-63
2024/01/31 04:05:42;;;;;;;1.23;0.83;;;;;;;2.05;85.14;101285.31;4182139;28;20268;-62
2024/01/31 04:08:08;;;;;;;4.47;0.77;;;;;;;2.15;84.81;101287.56;4188553;28;20257;-64
2024/01/31 04:10:36;;;;;;;0.60;0.60;;;;;;;2.30;84.16;101281.47;4188957;28;20253;-63
2024/01/31 04:13:03;;;;;;;0.53;0.53;;;;;;;2.39;83.44;101285.50;4191784;28;20249;-64
2024/01/31 04:15:30;;;;;;;0.20;0.20;;;;;;;2.39;83.72;101293.53;4186670;28;20433;-64
2024/01/31 04:17:57;;;;;;;10.73;2.13;;;;;;;2.30;83.75;101291.31;4200320;28;20548;-64
2024/01/31 04:20:24;;;;;;;2.10;1.57;;;;;;;2.34;83.91;101298.22;4191192;28;20243;-64
2024/01/31 04:22:51;;;;;;;0.07;0.07;;;;;;;2.39;84.09;101304.22;4187604;28;21158;-62
2024/01/31 04:25:17;;;;;;;5.03;1.97;;;;;;;2.30;84.26;101302.00;4182570;28;20234;-63
2024/01/31 04:27:44;;;;;;;2.00;0.67;;;;;;;2.17;84.93;101302.56;4194358;28;22801;-63
2024/01/31 04:30:11;;;;;;;0.10;0.10;;;;;;;2.26;84.86;101290.59;4187131;28;21794;-62
2024/01/31 04:32:38;;;;;;;5.43;1.70;;;;;;;2.34;84.51;101296.41;4185034;28;21313;-62
2024/01/31 04:35:08;;;;;;;0.40;0.40;;;;;;;2.34;84.73;101290.22;4187581;28;22868;-64
2024/01/31 04:37:36;;;;;;;0.40;0.40;;;;;;;2.50;84.04;101301.91;4174149;28;20287;-65
2024/01/31 04:40:04;;;;;;;0.10;0.10;;;;;;;2.50;83.96;101301.03;4194698;28;20233;-63
2024/01/31 04:42:31;;;;;;;0.10;0.10;;;;;;;2.57;83.75;101299.78;4186746;28;21498;-63
2024/01/31 04:44:58;;;;;;;0.83;0.40;;;;;;;2.64;83.62;101301.25;4186553;28;20607;-61
2024/01/31 04:47:25;;;;;;;5.63;1.60;;;;;;;2.68;83.27;101302.81;4182080;28;20245;-62
2024/01/31 04:49:53;;;;;;;2.70;0.77;;;;;;;2.64;83.53;101305.72;4193158;28;22295;-62
2024/01/31 04:52:20;;;;;;;4.17;0.83;;;;;;;2.72;83.31;101311.56;4188762;28;27404;-63
2024/01/31 04:54:46;;;;;;;1.20;0.93;;;;;;;2.74;83.48;101315.03;4192336;28;20304;-63
2024/01/31 04:57:13;;;;;;;1.80;1.27;;;;;;;2.72;83.54;101313.38;4197815;28;20560;-62
2024/01/31 04:59:40;;;;;;;5.00;2.00;;;;;;;2.82;82.96;101317.31;4199788;28;20233;-64
2024/01/31 05:02:07;;;;;;;8.83;2.77;;;;;;;2.77;83.29;101311.34;4204359;28;20486;-65
2024/01/31 05:04:36;;;;;;;1.13;1.07;;;;;;;2.84;83.04;101315.44;4197434;28;20921;-63
2024/01/31 05:07:03;;;;;;;0.67;0.67;;;;;;;2.81;83.11;101311.09;4199376;28;20380;-62
2024/01/31 05:09:29;;;;;;;0.23;0.23;;;;;;;2.74;83.65;101316.81;4199261;28;20438;-62
2024/01/31 05:11:56;;;;;;;5.20;1.07;;;;;;;2.64;84.83;101319.06;4202894;28;20269;-65
2024/01/31 05:14:23;;;;;;;0.07;0.07;;;;;;;2.60;85.02;101317.50;4204075;28;20542;-62
2024/01/31 05:16:49;;;;;;;3.80;1.37;;;;;;;2.60;85.32;101317.50;4198169;28;21226;-63
2024/01/31 05:19:16;;;;;;;15.97;5.23;;;;;;;2.56;85.83;101319.47;4185800;28;20241;-66
2024/01/31 05:21:50;;;;;;;0.20;0.20;;;;;;;2.58;85.86;101325.56;4189660;28;20307;-64
2024/01/31 05:24:17;;;;;;;14.83;2.90;;;;;;;2.53;86.26;101314.25;4189642;28;20298;-63
2024/01/31 05:26:46;;;;;;;2.73;1.63;;;;;;;2.47;86.72;101311.88;4192449;28;20322;-61
2024/01/31 05:29:14;;;;;;;4.97;3.67;;;;;;;2.56;86.80;101313.22;4197024;28;20234;-64
2024/01/31 05:31:41;;;;;;;1.13;0.93;;;;;;;2.54;87.11;101313.31;4189240;28;22291;-63
2024/01/31 05:34:08;;;;;;;0.10;0.10;;;;;;;2.61;87.12;101313.88;4190355;28;20284;-65
2024/01/31 05:36:34;;;;;;;5.43;2.13;;;;;;;2.59;86.79;101313.94;4189066;28;20237;-63
2024/01/31 05:39:01;;;;;;;2.53;2.43;;;;;;;2.56;87.42;101313.22;4184633;28;21930;-65
2024/01/31 05:41:27;;;;;;;5.83;1.97;;;;;;;2.58;87.29;101314.03;4187682;28;21177;-63
2024/01/31 05:43:54;;;;;;;4.00;2.00;;;;;;;2.70;87.15;101318.78;4189477;28;20245;-63
2024/01/31 05:46:20;;;;;;;8.83;3.83;;;;;;;2.58;87.91;101320.22;4179908;28;20234;-66
2024/01/31 05:48:47;;;;;;;5.57;2.13;;;;;;;2.59;87.65;101308.59;4186618;28;23621;-64
2024/01/31 05:51:14;;;;;;;4.30;2.03;;;;;;;2.63;87.82;101320.00;4186852;28;20241;-63
2024/01/31 05:53:41;;;;;;;7.03;2.97;;;;;;;2.56;88.16;101308.78;4192043;28;25634;-61
2024/01/31 05:56:07;;;;;;;10.53;4.00;;;;;;;2.61;88.10;101311.19;4187310;28;21346;-63
2024/01/31 05:58:34;;;;;;;22.87;5.43;;;;;;;2.57;88.59;101312.28;4195901;28;25102;-64
2024/01/31 06:01:00;;;;;;;4.90;1.43;;;;;;;2.60;88.54;101312.16;4187533;28;20376;-64
2024/01/31 06:03:28;;;;;;;4.23;1.43;;;;;;;2.60;88.53;101313.00;4190983;28;20336;-66
2024/01/31 06:05:56;;;;;;;11.07;3.60;;;;;;;2.57;88.79;101306.94;4187116;28;20237;-64
2024/01/31 06:08:23;;;;;;;2.07;0.70;;;;;;;2.58;88.82;101308.69;4191647;28;20241;-64
2024/01/31 06:10:54;;;;;;;9.63;4.30;;;;;;;2.46;89.46;101304.78;4187113;28;20257;-67
2024/01/31 06:13:21;;;;;;;10.03;3.40;;;;;;;2.39;89.68;101312.22;4203160;28;20273;-68
2024/01/31 06:15:48;;;;;;;15.30;4.07;;;;;;;2.40;89.95;101310.44;4185606;28;20324;-61
2024/01/31 06:18:15;;;;;;;1.60;0.90;;;;;;;2.41;90.18;101317.53;4191301;28;21139;-63
2024/01/31 06:20:44;;;;;;;1.97;1.43;;;;;;;2.38;90.82;101330.09;4191517;28;20242;-64
2024/01/31 06:23:11;;;;;;;23.73;4.47;;;;;;;2.38;90.96;101326.53;4188734;28;20335;-65
2024/01/31 06:25:38;;;;;;;6.13;3.10;;;;;;;2.42;90.84;101330.81;4190231;28;21806;-68
2024/01/31 06:28:07;;;;;;;15.07;5.23;;;;;;;2.48;90.91;101326.97;4196665;28;20274;-67
2024/01/31 06:30:41;;;;;;;1.80;1.60;;;;;;;2.52;90.77;101328.56;4193999;28;20230;-68
2024/01/31 06:33:08;;;;;;;24.53;8.20;;;;;;;2.48;91.36;101329.66;4191195;28;20240;-65
2024/01/31 06:35:35;;;;;;;14.77;4.67;;;;;;;2.41;91.74;101321.03;4199791;28;21603;-66
2024/01/31 06:38:03;;;;;;;12.17;4.37;;;;;;;2.40;92.25;101332.66;4186203;28;20237;-66
2024/01/31 06:40:32;;;;;;;19.77;7.03;;;;;;;2.37;92.33;101333.69;4209674;28;26193;-66
2024/01/31 06:42:59;;;;;;;2.83;1.80;;;;;;;2.38;92.93;101330.09;4211817;28;20243;-66
2024/01/31 06:45:27;;;;;;;5.33;1.63;;;;;;;2.43;92.72;101337.00;4188246;28;20238;-67
2024/01/31 06:47:54;;;;;;;4.33;2.27;;;;;;;2.42;93.12;101340.63;4190900;28;20256;-68
2024/01/31 06:50:21;;;;;;;13.40;5.77;;;;;;;2.44;93.39;101336.06;4194724;28;21541;-68
2024/01/31 06:52:48;;;;;;;18.57;7.20;;;;;;;2.47;93.66;101334.13;4197264;28;20592;-68
2024/01/31 06:55:15;;;;;;;33.43;7.63;;;;;;;2.51;93.78;101334.84;4208577;28;20240;-66
2024/01/31 06:57:42;;;;;;;0.47;0.47;;;;;;;2.61;93.56;101341.47;4191369;28;20448;-66
2024/01/31 07:00:12;;;;;;;5.53;1.43;;;;;;;2.67;93.50;101335.84;4192336;28;21380;-65
2024/01/31 07:02:39;;;;;;;3.63;1.63;;;;;;;2.85;92.64;101335.88;4197716;28;22993;-66
2024/01/31 07:05:06;;;;;;;0.10;0.10;;;;;;;2.88;92.76;101343.75;4195790;28;21649;-66
2024/01/31 07:07:33;;;;;;;11.83;3.43;;;;;;;2.89;92.63;101334.78;4183995;28;21690;-67
2024/01/31 07:10:00;;;;;;;14.67;4.33;;;;;;;2.94;92.57;101329.22;4188106;28;25219;-67
2024/01/31 07:12:27;;;;;;;8.63;4.03;;;;;;;2.93;92.58;101340.84;4204526;28;20242;-69
2024/01/31 07:14:54;;;;;;;3.67;1.47;;;;;;;2.94;92.82;101339.91;4189211;28;25632;-65
2024/01/31 07:17:20;;;;;;;17.70;5.20;;;;;;;2.96;92.65;101338.88;4205915;28;20233;-65
2024/01/31 07:19:47;;;;;;;3.97;1.80;;;;;;;3.02;92.20;101332.38;4193482;28;20260;-67
2024/01/31 07:22:13;;;;;;;6.97;1.47;;;;;;;3.05;92.15;101326.00;4213900;28;25500;-65
2024/01/31 07:24:41;;;;;;;1.60;1.13;;;;;;;3.03;92.26;101333.22;4202137;28;20250;-68
2024/01/31 07:27:08;;;;;;;10.97;3.47;;;;;;;3.07;92.07;101338.34;4204866;28;20332;-66
2024/01/31 07:29:34;;;;;;;7.60;2.40;;;;;;;3.14;91.66;101329.06;4205452;28;21118;-67
2024/01/31 07:32:01;;;;;;;16.23;5.30;;;;;;;3.09;91.50;101336.47;4192961;28;20900;-66
2024/01/31 07:34:28;;;;;;;9.93;3.57;;;;;;;3.06;92.06;101338.44;4192143;28;20327;-67
2024/01/31 07:36:54;;;;;;;10.47;2.37;;;;;;;3.08;91.82;101340.09;4181262;28;20404;-67
2024/01/31 07:39:21;;;;;;;14.43;7.23;;;;;;;3.07;92.23;101340.16;4185583;28;20240;-65
2024/01/31 07:41:48;;;;;;;15.03;4.17;;;;;;;3.14;91.78;101334.41;4183967;28;20251;-68
2024/01/31 07:44:15;;;;;;;13.17;3.37;;;;;;;3.15;91.21;101335.31;4188567;28;20237;-66
2024/01/31 07:46:41;;;;;;;23.67;8.37;;;;;;;3.20;91.22;101340.44;4184960;28;21773;-67
2024/01/31 07:49:09;;;;;;;7.60;2.43;;;;;;;3.22;90.99;101346.53;4192790;28;20241;-66
2024/01/31 07:51:43;;;;;;;9.00;3.80;;;;;;;3.21;91.03;101339.50;4195203;28;20237;-68
2024/01/31 07:54:15;;;;;;;11.07;3.97;;;;;;;3.23;90.90;101338.47;4256093;28;21310;-66
2024/01/31 07:56:42;;;;;;;19.77;6.70;;;;;;;3.26;90.60;101350.81;4195282;28;21503;-67
2024/01/31 07:59:08;;;;;;;6.90;2.87;;;;;;;3.27;90.51;101341.84;4189232;28;20600;-68
2024/01/31 08:01:35;;;;;;;0.73;0.73;;;;;;;3.30;90.34;101353.25;4205630;28;22712;-70
2024/01/31 08:04:03;;;;;;;11.60;4.13;;;;;;;3.28;90.79;101346.25;4199206;28;20308;-67
2024/01/31 08:06:30;;;;;;;2.13;1.40;;;;;;;3.25;90.79;101341.91;4198608;28;20291;-68
2024/01/31 08:08:57;;;;;;;9.37;3.77;;;;;;;3.29;90.87;101343.50;4199788;28;20248;-67
2024/01/31 08:11:43;;;;;;;14.13;4.83;;;;;;;3.29;90.81;101350.63;4196398;28;20240;-68
2024/01/31 08:14:11;;;;;;;16.73;7.53;;;;;;;3.32;90.89;101363.88;4212485;28;20229;-68
2024/01/31 08:16:38;;;;;;;15.27;6.07;;;;;;;3.35;91.19;101357.50;4200970;28;20305;-66
2024/01/31 08:19:05;;;;;;;32.53;9.73;;;;;;;3.31;91.06;101362.13;4186871;28;21284;-65
2024/01/31 08:21:34;;;;;;;2.10;0.70;;;;;;;3.38;91.04;101365.38;4188427;28;20367;-65
2024/01/31 08:24:02;;;;;;;12.33;4.20;;;;;;;3.45;91.10;101353.41;4190805;28;21787;-64
2024/01/31 08:26:28;;;;;;;15.13;4.63;;;;;;;3.45;91.18;101359.63;4200633;28;20246;-66
2024/01/31 08:28:55;;;;;;;29.37;5.67;;;;;;;3.44;90.99;101359.72;4196321;28;20235;-65
2024/01/31 08:31:36;;;;;;;1.07;0.97;;;;;;;3.54;90.81;101360.09;4182838;28;22256;-64
2024/01/31 08:34:04;;;;;;;0.00;0.00;;;;;;;3.67;90.57;101363.00;4199785;28;21157;-64
2024/01/31 08:36:31;;;;;;;3.73;1.93;;;;;;;3.62;90.72;101363.25;4199861;28;20245;-67
2024/01/31 08:38:57;;;;;;;1.40;0.43;;;;;;;3.67;90.82;101357.66;4202483;28;22868;-65
2024/01/31 08:41:24;;;;;;;4.80;1.77;;;;;;;3.79;89.96;101362.38;4199506;28;20418;-64
2024/01/31 08:43:51;;;;;;;10.73;3.00;;;;;;;3.80;89.84;101369.44;4197292;28;20303;-63
2024/01/31 08:46:17;;;;;;;2.80;1.33;;;;;;;3.70;90.48;101366.41;4190618;28;20281;-66
2024/01/31 08:48:44;;;;;;;13.67;5.47;;;;;;;3.65;90.99;101369.31;4190630;28;20248;-66
2024/01/31 08:51:11;;;;;;;5.93;2.43;;;;;;;3.72;90.85;101366.31;4189410;28;20253;-61
2024/01/31 08:53:38;;;;;;;15.00;4.63;;;;;;;3.74;90.73;101375.13;4183545;28;20347;-65
2024/01/31 08:56:04;;;;;;;22.40;5.23;;;;;;;3.78;90.87;101369.53;4187661;28;21138;-65
2024/01/31 08:58:36;;;;;;;12.60;5.80;;;;;;;3.82;90.93;101372.94;4185805;28;22218;-65
2024/01/31 09:01:04;;;;;;;5.07;2.23;;;;;;;3.88;90.68;101377.97;4186395;28;20771;-64
2024/01/31 09:03:31;;;;;;;19.13;4.90;;;;;;;3.93;90.43;101377.72;4188243;28;20248;-62
2024/01/31 09:05:57;;;;;;;23.23;8.17;;;;;;;3.93;90.58;101370.53;4197075;28;20236;-64
2024/01/31 09:08:24;;;;;;;19.00;7.10;;;;;;;4.01;90.34;101377.28;4187281;28;20237;-64
2024/01/31 09:10:51;;;;;;;7.37;2.20;;;;;;;3.99;90.67;101368.50;4189160;28;20701;-64
2024/01/31 09:13:21;;;;;;;23.33;7.73;;;;;;;4.10;90.56;101372.34;4191087;28;20274;-62
2024/01/31 09:39:16;;;;;;;8.37;3.63;;;;;;;4.74;88.70;101376.91;4264431;27;21414;-63
2024/01/31 09:41:43;;;;;;;7.57;4.73;;;;;;;4.75;88.68;101366.09;4247675;28;21744;-64
2024/01/31 09:44:09;;;;;;;14.37;4.27;;;;;;;4.78;88.70;101365.03;4246840;28;20297;-65
2024/01/31 09:46:39;;;;;;;13.03;3.70;;;;;;;4.80;88.68;101360.47;4248632;28;22875;-65
2024/01/31 09:49:06;;;;;;;19.50;6.50;;;;;;;4.82;88.73;101355.00;4243763;28;20233;-63
2024/01/31 09:51:33;;;;;;;0.93;0.93;;;;;;;4.89;88.89;101365.31;4239328;28;20238;-65
2024/01/31 09:54:00;;;;;;;10.33;3.77;;;;;;;4.88;88.48;101357.31;4254964;28;20234;-64
2024/01/31 09:56:32;;;;;;;21.53;8.57;;;;;;;4.90;88.86;101360.78;4255511;28;20245;-67
2024/01/31 09:58:59;;;;;;;14.77;5.97;;;;;;;4.92;89.10;101361.59;4250523;28;20877;-66
2024/01/31 10:01:26;;;;;;;9.03;4.30;;;;;;;4.96;88.92;101354.22;4251624;28;20365;-66
2024/01/31 10:03:58;;;;;;;13.30;4.87;;;;;;;5.05;88.56;101356.38;4255998;28;21632;-67
2024/01/31 10:06:29;;;;;;;9.23;4.33;;;;;;;5.16;88.03;101355.75;4252620;28;20842;-68
2024/01/31 10:09:00;;;;;;;8.93;2.17;;;;;;;5.26;87.75;101353.38;4248873;28;21167;-67
2024/01/31 10:11:29;;;;;;;18.10;6.20;;;;;;;5.39;86.85;101338.28;4239254;28;20299;-64
2024/01/31 10:13:55;;;;;;;8.33;3.50;;;;;;;5.67;86.10;101345.53;4247713;28;20591;-64
2024/01/31 10:16:24;;;;;;;6.70;3.13;;;;;;;5.83;85.35;101344.59;4251171;28;21923;-65
2024/01/31 10:18:51;;;;;;;27.37;8.17;;;;;;;5.83;84.89;101349.97;4245827;28;20290;-69
2024/01/31 10:21:21;;;;;;;26.40;8.43;;;;;;;5.80;84.86;101347.47;4261192;28;21100;-63
2024/01/31 10:24:04;;;;;;;14.23;5.20;;;;;;;5.80;85.21;101337.59;4252807;28;20232;-63
2024/01/31 10:26:33;;;;;;;19.97;7.97;;;;;;;5.76;85.64;101338.72;4249613;28;20345;-64
2024/01/31 10:29:00;;;;;;;4.77;2.20;;;;;;;5.81;85.69;101336.66;4264169;28;20281;-66
2024/01/31 10:31:37;;;;;;;0.63;0.63;;;;;;;5.95;85.45;101325.03;4245627;28;21876;-65
2024/01/31 10:34:06;;;;;;;11.13;4.10;;;;;;;5.89;85.57;101330.78;4246168;28;21087;-66
2024/01/31 10:36:34;;;;;;;14.50;5.87;;;;;;;5.99;85.50;101328.41;4244152;28;20479;-67
2024/01/31 10:39:11;;;;;;;2.53;1.63;;;;;;;6.22;84.91;101324.31;4230981;28;23438;-63
2024/01/31 10:41:42;;;;;;;8.67;4.53;;;;;;;6.13;85.04;101311.44;4248543;28;22154;-63
2024/01/31 10:44:14;;;;;;;3.67;2.37;;;;;;;6.23;84.57;101320.63;4235497;28;21844;-64
2024/01/31 10:46:45;;;;;;;13.07;5.07;;;;;;;6.25;84.63;101316.03;4246239;28;20230;-66
2024/01/31 10:49:13;;;;;;;4.70;2.47;;;;;;;6.32;84.93;101303.91;4243308;28;20227;-67
2024/01/31 10:51:43;;;;;;;7.47;3.67;;;;;;;6.23;85.25;101299.13;4235247;28;20227;-66
2024/01/31 10:54:11;;;;;;;8.07;3.47;;;;;;;6.18;85.53;101303.94;4235776;28;21104;-66
2024/01/31 10:56:38;;;;;;;17.10;5.20;;;;;;;6.10;85.91;101304.44;4251945;28;20835;-64
2024/01/31 10:59:07;;;;;;;16.47;5.23;;;;;;;6.08;86.21;101308.19;4232334;28;20238;-63
2024/01/31 11:01:34;;;;;;;7.10;2.13;;;;;;;6.14;86.09;101308.63;4232672;28;20257;-66
2024/01/31 11:04:02;;;;;;;7.10;3.20;;;;;;;6.03;86.57;101301.25;4212607;28;20405;-66
2024/01/31 11:06:41;;;;;;;3.53;1.33;;;;;;;6.02;87.22;101304.91;4231652;28;20230;-64
2024/01/31 11:09:25;;;;;;;4.73;2.50;;;;;;;6.00;87.42;101303.28;4245274;28;20231;-66
2024/01/31 11:12:05;;;;;;;5.00;2.47;;;;;;;5.96;87.54;101294.50;4236511;28;20392;-68
2024/01/31 11:14:33;;;;;;;1.07;1.07;;;;;;;5.95;88.16;101300.00;4208867;28;20233;-66
2024/01/31 11:17:09;;;;;;;0.50;0.50;;;;;;;5.93;88.69;101293.84;4242011;28;20808;-66
2024/01/31 11:20:02;;;;;;;0.03;0.03;;;;;;;6.03;88.39;101290.50;4240697;28;21531;-65
2024/01/31 11:22:29;;;;;;;9.97;5.10;;;;;;;6.14;88.46;101297.03;4229726;28;20236;-66
2024/01/31 11:24:58;;;;;;;21.90;6.13;;;;;;;6.05;89.06;101298.47;4236352;28;20237;-65
2024/01/31 11:27:26;;;;;;;10.27;2.60;;;;;;;6.09;89.08;101291.94;4234288;28;20226;-65
2024/01/31 11:29:53;;;;;;;5.67;3.43;;;;;;;6.06;89.38;101292.13;4241066;28;21078;-65
2024/01/31 11:32:21;;;;;;;12.23;4.47;;;;;;;6.07;89.30;101288.47;4235438;28;20372;-64
2024/01/31 11:35:04;;;;;;;6.83;3.10;;;;;;;6.06;89.37;101292.13;4226489;28;21163;-63
2024/01/31 11:37:32;;;;;;;12.50;4.73;;;;;;;5.99;89.76;101280.03;4235277;28;20282;-62
2024/01/31 11:39:58;;;;;;;17.20;7.47;;;;;;;5.94;90.09;101282.13;4234757;28;21256;-64
2024/01/31 11:42:26;;;;;;;3.43;1.63;;;;;;;6.00;89.95;101279.06;4241875;28;20231;-65
2024/01/31 11:44:53;;;;;;;21.40;8.03;;;;;;;6.01;89.93;101267.38;4243337;28;21521;-62
2024/01/31 11:47:21;;;;;;;10.27;3.67;;;;;;;6.05;89.90;101274.25;4238130;28;20235;-70
2024/01/31 11:49:48;;;;;;;21.10;5.80;;;;;;;6.09;90.08;101272.25;4234329;28;20226;-64
2024/01/31 11:52:15;;;;;;;16.20;7.83;;;;;;;6.15;89.48;101263.81;4249352;28;23508;-66
2024/01/31 11:54:41;;;;;;;1.57;1.00;;;;;;;6.27;90.57;101263.00;4241325;28;20334;-67
2024/01/31 11:57:08;;;;;;;16.80;3.03;;;;;;;6.41;88.67;101264.81;4221172;28;21278;-62